Time;durP1;ratioP1;P1;durP2;ratioP2;P2;SDS_P1;SDS_P2;PMS_P1;PMS_P2;Temp;Humidity;BMP_temperature;BMP_pressure;BME280_temperature;BME280_humidity;BME280_pressure;Samples;Min_cycle;Max_cycle;Signal;HPM_P1;HPM_P2
2022/09/25 12:00:35;;;;;;;15.88;5.45;;;;;;;18.38;100.00;99946.66;5152327;27;20401;-54
2022/09/25 12:03:19;;;;;;;18.17;4.57;;;;;;;18.79;100.00;99945.28;5151795;27;20035;-54
2022/09/25 12:05:59;;;;;;;13.95;4.55;;;;;;;19.27;100.00;99938.69;5152265;27;20050;-54
2022/09/25 12:08:43;;;;;;;12.73;4.22;;;;;;;19.49;100.00;99931.06;5185835;27;20050;-55
2022/09/25 12:11:19;;;;;;;14.48;3.90;;;;;;;19.80;100.00;99942.34;5151859;27;20050;-50
2022/09/25 12:14:03;;;;;;;12.55;4.03;;;;;;;19.84;100.00;99935.59;5152063;27;20091;-51
2022/09/25 12:16:41;;;;;;;21.42;4.18;;;;;;;19.67;100.00;99931.91;5151932;27;20467;-56
2022/09/25 12:19:22;;;;;;;19.77;3.97;;;;;;;19.79;100.00;99927.13;5150191;27;20039;-56
2022/09/25 12:22:00;;;;;;;29.60;4.78;;;;;;;19.71;100.00;99934.16;5151820;27;20240;-53
2022/09/25 12:24:43;;;;;;;29.40;4.10;;;;;;;19.78;100.00;99928.09;5150419;27;20043;-54
2022/09/25 12:27:21;;;;;;;16.65;3.88;;;;;;;19.53;100.00;99932.47;5150181;27;20524;-52
2022/09/25 12:30:10;;;;;;;24.67;4.40;;;;;;;19.58;100.00;99932.88;5151734;27;20045;-53
2022/09/25 12:33:03;;;;;;;30.73;4.70;;;;;;;19.57;100.00;99929.31;5151551;27;20039;-52
2022/09/25 12:35:46;;;;;;;37.78;4.95;;;;;;;19.60;100.00;99929.03;5151709;27;20035;-52
2022/09/25 12:38:27;;;;;;;27.60;4.97;;;;;;;19.63;100.00;99930.56;5151185;27;20103;-54
2022/09/25 12:41:05;;;;;;;26.40;4.00;;;;;;;19.63;100.00;99931.41;5150155;27;20039;-55
2022/09/25 12:43:40;;;;;;;29.33;4.50;;;;;;;19.63;100.00;99917.03;5149988;27;20446;-55
2022/09/25 12:46:13;;;;;;;36.92;5.35;;;;;;;19.72;100.00;99911.50;5149801;27;20039;-54
2022/09/25 12:48:50;;;;;;;24.17;4.35;;;;;;;19.78;100.00;99923.53;5151470;27;20043;-53
2022/09/25 12:51:22;;;;;;;34.55;4.82;;;;;;;19.84;100.00;99928.31;5150846;27;20352;-53
2022/09/25 12:53:55;;;;;;;55.10;5.88;;;;;;;19.74;100.00;99919.47;5149745;27;20051;-55
2022/09/25 12:56:29;;;;;;;31.92;5.70;;;;;;;19.81;100.00;99917.81;5149637;27;20096;-51
2022/09/25 12:59:01;;;;;;;;;;;;;;;19.82;100.00;99918.66;5151337;27;20072;-53
2022/09/25 13:01:36;;;;;;;28.20;4.82;;;;;;;19.82;100.00;99921.38;5150065;27;19915;-60
2022/09/25 13:04:21;;;;;;;44.25;6.05;;;;;;;19.78;100.00;99920.81;5145820;27;20490;-62
2022/09/25 13:06:55;;;;;;;28.83;5.20;;;;;;;19.76;100.00;99917.44;5130833;27;20425;-63
2022/09/25 13:09:30;;;;;;;;;;;;;;;19.72;100.00;99916.06;5143790;27;20047;-62
2022/09/25 13:12:04;;;;;;;51.70;5.18;;;;;;;19.69;100.00;99916.41;5136648;27;19923;-61
2022/09/25 13:14:38;;;;;;;36.90;5.32;;;;;;;19.71;100.00;99915.22;5137299;27;20031;-60
2022/09/25 13:17:10;;;;;;;21.13;3.97;;;;;;;19.75;100.00;99910.34;5137426;27;20063;-61
2022/09/25 13:19:40;;;;;;;23.43;4.90;;;;;;;19.79;100.00;99916.28;5137509;27;20427;-61
2022/09/25 13:22:12;;;;;;;18.50;4.30;;;;;;;19.85;100.00;99911.06;5135940;27;20046;-64
2022/09/25 13:24:45;;;;;;;26.52;4.75;;;;;;;19.87;100.00;99917.16;5137341;27;20039;-61
2022/09/25 13:27:19;;;;;;;24.52;3.75;;;;;;;19.97;100.00;99915.19;5137077;27;20122;-59
2022/09/25 13:29:54;;;;;;;27.75;4.05;;;;;;;20.02;100.00;99912.03;5136711;27;20061;-60
2022/09/25 13:32:27;;;;;;;30.13;4.43;;;;;;;19.95;100.00;99914.50;5135262;27;20087;-59
2022/09/25 13:35:02;;;;;;;20.88;3.70;;;;;;;19.96;100.00;99913.50;5137110;27;20035;-59
2022/09/25 13:37:33;;;;;;;25.98;4.25;;;;;;;20.04;100.00;99910.00;5136780;27;20046;-59
2022/09/25 13:43:20;;;;;;;41.75;4.50;;;;;;;19.90;100.00;99908.75;5136796;27;20076;-61
2022/09/25 13:46:09;;;;;;;8.75;3.38;;;;;;;19.87;100.00;99908.19;5136433;27;20042;-62
2022/09/25 13:48:39;;;;;;;26.20;4.30;;;;;;;19.74;100.00;99900.53;5115036;28;20036;-61
2022/09/25 13:51:34;;;;;;;12.25;3.50;;;;;;;19.63;100.00;99890.81;5114675;28;20080;-62
2022/09/25 13:54:05;;;;;;;11.60;3.30;;;;;;;19.66;100.00;99911.28;5148543;27;20050;-62
2022/09/25 13:56:48;;;;;;;9.63;3.28;;;;;;;19.75;100.00;99904.91;5115790;28;20093;-62
2022/09/25 13:59:38;;;;;;;9.13;3.53;;;;;;;19.70;100.00;99907.28;5148053;27;20399;-61
2022/09/25 14:02:37;;;;;;;8.95;2.88;;;;;;;19.83;100.00;99904.97;5115456;28;20040;-60
2022/09/25 14:05:07;;;;;;;12.32;3.53;;;;;;;19.82;100.00;99902.44;5114968;27;20032;-67
2022/09/25 14:07:36;;;;;;;14.02;3.60;;;;;;;19.72;100.00;99902.53;5114377;28;20067;-60
2022/09/25 14:10:11;;;;;;;14.38;3.22;;;;;;;19.64;100.00;99902.47;5113833;28;20476;-67
2022/09/25 14:12:44;;;;;;;18.23;3.65;;;;;;;19.72;100.00;99899.84;5115216;28;20123;-60
2022/09/25 14:15:23;;;;;;;14.55;3.00;;;;;;;19.73;100.00;99901.53;5114752;28;20093;-60
2022/09/25 14:17:53;;;;;;;15.80;3.13;;;;;;;19.84;100.00;99903.97;5115244;28;20063;-60
2022/09/25 14:20:37;;;;;;;12.07;3.15;;;;;;;19.76;100.00;99895.78;5114894;28;20046;-61
2022/09/25 14:23:12;;;;;;;7.07;2.80;;;;;;;19.62;100.00;99896.38;5114167;28;20501;-61
2022/09/25 14:25:43;;;;;;;7.47;3.05;;;;;;;19.59;100.00;99893.97;5114984;28;20110;-57
2022/09/25 14:28:20;;;;;;;6.05;2.80;;;;;;;19.63;100.00;99896.22;5114853;28;20042;-60
2022/09/25 14:31:00;;;;;;;11.20;3.10;;;;;;;19.68;100.00;99903.84;5148517;27;20100;-60
2022/09/25 14:33:50;;;;;;;6.95;2.75;;;;;;;19.73;100.00;99896.13;5115004;28;20035;-60
2022/09/25 14:36:35;;;;;;;7.00;2.83;;;;;;;19.88;100.00;99883.72;5115159;28;20357;-55
2022/09/25 14:39:28;;;;;;;8.35;3.10;;;;;;;19.86;100.00;99888.41;5113689;28;20052;-61
2022/09/25 14:42:23;;;;;;;12.05;3.00;;;;;;;19.84;100.00;99889.59;5113603;28;20373;-60
2022/09/25 14:45:07;;;;;;;13.00;3.58;;;;;;;19.76;100.00;99882.25;5114943;28;20472;-59
2022/09/25 14:47:39;;;;;;;19.83;3.28;;;;;;;19.67;100.00;99881.34;5114761;28;20058;-60
2022/09/25 14:50:20;;;;;;;14.93;3.78;;;;;;;19.70;100.00;99869.41;5114546;28;20047;-72
2022/09/25 14:52:52;;;;;;;19.58;4.43;;;;;;;19.69;100.00;99873.09;5114554;28;20036;-61
2022/09/25 14:55:23;;;;;;;17.97;3.77;;;;;;;19.77;100.00;99873.13;5113225;28;20438;-60
2022/09/25 14:57:52;;;;;;;18.33;3.83;;;;;;;19.83;100.00;99871.66;5113408;28;20039;-61
2022/09/25 15:00:23;;;;;;;30.27;3.60;;;;;;;19.85;100.00;99873.19;5147040;27;20051;-61
2022/09/25 15:02:54;;;;;;;11.68;3.55;;;;;;;19.87;100.00;99870.31;5147654;27;20043;-62
2022/09/25 15:05:31;;;;;;;12.10;3.70;;;;;;;19.81;100.00;99877.22;5112767;28;20054;-61
2022/09/25 15:08:02;;;;;;;10.57;3.90;;;;;;;19.71;100.00;99871.94;5113040;28;20067;-61
2022/09/25 15:10:33;;;;;;;7.72;3.28;;;;;;;19.55;100.00;99866.38;5112898;28;20054;-61
2022/09/25 15:13:14;;;;;;;11.05;3.30;;;;;;;19.55;100.00;99876.34;5114505;28;20038;-61
2022/09/25 15:17:20;;;;;;;10.82;3.47;;;;;;;19.59;100.00;99869.63;5112858;28;20058;-60
2022/09/25 15:18:37;;;;;;;9.52;3.38;;;;;;;19.66;100.00;99870.69;5114402;28;20044;-60
2022/09/25 15:21:08;;;;;;;9.30;3.40;;;;;;;19.74;100.00;99876.16;5112840;28;20468;-60
2022/09/25 15:23:38;;;;;;;6.22;3.42;;;;;;;19.69;100.00;99870.41;5112854;28;20040;-61
2022/09/25 15:26:06;;;;;;;14.65;3.20;;;;;;;19.69;100.00;99868.53;5112367;28;20480;-61
2022/09/25 15:28:38;;;;;;;12.43;3.30;;;;;;;19.80;100.00;99869.28;5114075;28;20039;-61
2022/09/25 15:31:07;;;;;;;10.63;3.67;;;;;;;19.74;100.00;99865.34;5114015;28;20480;-61
2022/09/25 15:33:38;;;;;;;7.15;3.30;;;;;;;19.70;100.00;99863.97;5113727;28;20046;-61
2022/09/25 15:36:16;;;;;;;8.68;3.30;;;;;;;19.76;100.00;99857.06;5147095;27;20067;-60
2022/09/25 15:38:58;;;;;;;12.20;3.22;;;;;;;19.74;100.00;99851.81;5113868;28;20059;-60
2022/09/25 15:41:28;;;;;;;11.93;3.20;;;;;;;19.81;100.00;99860.16;5113740;28;20384;-60
2022/09/25 15:44:12;;;;;;;11.25;3.25;;;;;;;19.90;100.00;99846.50;5113668;28;20044;-60
2022/09/25 15:46:44;;;;;;;12.23;3.50;;;;;;;19.77;100.00;99851.47;5113715;28;20043;-59
2022/09/25 15:49:15;;;;;;;8.15;3.58;;;;;;;19.81;100.00;99854.72;5113419;28;20092;-61
2022/09/25 15:51:59;;;;;;;10.40;3.20;;;;;;;19.87;100.00;99864.91;5113758;28;20429;-60
2022/09/25 15:54:35;;;;;;;9.77;3.13;;;;;;;19.88;100.00;99856.63;5124589;27;20043;-64
2022/09/25 15:57:09;;;;;;;11.88;3.45;;;;;;;19.97;100.00;99854.78;5131014;27;20556;-59
2022/09/25 16:04:44;;;;;;;9.82;3.53;;;;;;;20.14;100.00;99851.16;5132702;28;20488;-60
2022/09/25 16:05:31;;;;;;;9.00;3.50;;;;;;;20.01;100.00;99845.34;5134107;27;20031;-60
2022/09/25 16:08:22;;;;;;;7.80;3.45;;;;;;;19.95;100.00;99846.84;5132880;28;20100;-62
2022/09/25 16:11:05;;;;;;;9.77;3.20;;;;;;;20.07;100.00;99844.69;5133928;27;20088;-59
2022/09/25 16:13:33;;;;;;;7.20;2.95;;;;;;;19.99;100.00;99826.56;5132955;27;20047;-60
2022/09/25 16:16:03;;;;;;;6.68;2.90;;;;;;;20.00;100.00;99838.25;5133289;28;20039;-60
2022/09/25 16:18:39;;;;;;;7.35;3.00;;;;;;;19.99;100.00;99837.41;5133915;27;20383;-60
2022/09/25 16:21:16;;;;;;;10.05;3.20;;;;;;;19.98;100.00;99843.00;5134069;27;20035;-60
2022/09/25 16:23:51;;;;;;;12.65;3.45;;;;;;;20.00;100.00;99836.38;5134042;27;20045;-60
2022/09/25 16:26:28;;;;;;;9.20;3.55;;;;;;;20.05;100.00;99848.56;5132128;28;20047;-60
2022/09/25 16:29:04;;;;;;;7.35;3.28;;;;;;;19.99;100.00;99833.84;5133960;27;20426;-60
2022/09/25 16:31:35;;;;;;;7.68;2.85;;;;;;;20.06;100.00;99831.31;5133583;27;20043;-59
2022/09/25 16:34:04;;;;;;;7.63;2.95;;;;;;;20.06;100.00;99834.88;5133904;27;20134;-60
2022/09/25 16:36:42;;;;;;;7.82;3.40;;;;;;;20.07;100.00;99833.00;5132264;28;20476;-60
2022/09/25 16:39:27;;;;;;;8.18;3.03;;;;;;;20.14;100.00;99828.66;5132622;28;20040;-60
2022/09/25 16:41:58;;;;;;;10.75;3.35;;;;;;;20.19;100.00;99831.72;5130625;27;20475;-60
2022/09/25 16:44:41;;;;;;;6.85;3.20;;;;;;;20.22;100.00;99831.38;5133513;27;20031;-64
2022/09/25 16:47:15;;;;;;;5.97;3.03;;;;;;;20.23;100.00;99827.66;5136127;27;20403;-60
2022/09/25 16:49:43;;;;;;;9.77;3.22;;;;;;;20.21;100.00;99821.56;5134812;27;20539;-61
2022/09/25 16:52:19;;;;;;;11.95;3.20;;;;;;;20.21;100.00;99818.88;5132034;27;20043;-60
2022/09/25 16:54:52;;;;;;;11.20;3.60;;;;;;;20.05;100.00;99816.94;5137563;27;20467;-62
2022/09/25 16:57:23;;;;;;;8.13;3.38;;;;;;;20.07;100.00;99816.75;5137494;27;20036;-61
2022/09/25 16:59:52;;;;;;;7.85;3.35;;;;;;;19.97;100.00;99806.06;5135617;27;20108;-53
2022/09/25 17:02:34;;;;;;;8.75;3.88;;;;;;;19.89;100.00;99814.19;5136412;27;20114;-60
2022/09/25 17:05:06;;;;;;;9.83;3.40;;;;;;;19.89;100.00;99809.63;5136110;27;20126;-58
2022/09/25 17:07:34;;;;;;;10.70;3.67;;;;;;;19.90;100.00;99803.19;5135898;27;20105;-68
2022/09/25 17:10:02;;;;;;;10.05;3.60;;;;;;;19.93;100.00;99802.84;5135566;27;20043;-66
2022/09/25 17:12:32;;;;;;;9.77;3.75;;;;;;;19.99;100.00;99804.91;5136988;27;20039;-65
2022/09/25 17:15:01;;;;;;;8.85;3.80;;;;;;;19.99;100.00;99804.91;5137320;27;20043;-59
2022/09/25 17:17:29;;;;;;;10.55;3.90;;;;;;;20.00;100.00;99809.31;5135712;27;20095;-61
2022/09/25 17:19:58;;;;;;;6.97;3.65;;;;;;;19.96;100.00;99797.09;5130726;27;20031;-63
2022/09/25 17:22:28;;;;;;;17.08;4.20;;;;;;;19.93;100.00;99800.16;5133926;27;20061;-63
